createdAt,value
2022-10-19T00:00:25.346Z,7.06
2022-10-19T00:02:51.908Z,7.06
2022-10-19T00:05:18.451Z,7.05
2022-10-19T00:07:44.918Z,7.03
2022-10-19T00:10:11.651Z,6.93
2022-10-19T00:12:38.823Z,6.84
2022-10-19T00:15:06.501Z,6.76
2022-10-19T00:17:34.776Z,6.74
2022-10-19T00:20:01.430Z,6.75
2022-10-19T00:22:27.867Z,6.67
2022-10-19T00:24:56.858Z,6.55
2022-10-19T00:27:23.355Z,6.44
2022-10-19T00:29:49.748Z,6.44
2022-10-19T00:32:16.146Z,6.49
2022-10-19T00:34:42.615Z,6.50
2022-10-19T00:37:09.067Z,6.44
2022-10-19T00:39:35.482Z,6.30
2022-10-19T00:42:01.943Z,6.24
2022-10-19T00:44:28.447Z,6.35
2022-10-19T00:46:59.082Z,6.36
2022-10-19T00:49:33.203Z,6.34
2022-10-19T00:52:06.114Z,6.35
2022-10-19T00:54:33.814Z,6.36
2022-10-19T00:57:00.570Z,6.35
2022-10-19T00:59:31.741Z,6.34
2022-10-19T01:01:59.011Z,6.32
2022-10-19T01:04:27.089Z,6.32
2022-10-19T01:06:54.818Z,6.32
2022-10-19T01:09:21.418Z,6.30
2022-10-19T01:11:53.758Z,6.26
2022-10-19T01:14:38.474Z,6.25
2022-10-19T01:17:36.151Z,6.19
2022-10-19T01:20:05.824Z,6.12
2022-10-19T01:22:46.680Z,6.11
2022-10-19T01:25:19.187Z,5.99
2022-10-19T01:28:29.722Z,5.79
2022-10-19T01:31:02.068Z,5.62
2022-10-19T01:33:34.576Z,5.49
2022-10-19T01:36:26.986Z,5.42
2022-10-19T01:39:30.620Z,5.45
2022-10-19T01:42:01.428Z,5.46
2022-10-19T01:44:31.363Z,5.51
2022-10-19T01:47:07.558Z,5.52
2022-10-19T01:49:51.189Z,5.59
2022-10-19T01:52:20.712Z,5.55
2022-10-19T01:54:51.257Z,5.52
2022-10-19T01:57:23.948Z,5.53
2022-10-19T01:59:51.474Z,5.52
2022-10-19T02:02:19.825Z,5.47
2022-10-19T02:04:48.963Z,5.48
2022-10-19T02:07:16.252Z,5.49
2022-10-19T02:09:42.740Z,5.48
2022-10-19T02:12:11.158Z,5.42
2022-10-19T02:14:43.010Z,5.42
2022-10-19T02:17:14.150Z,5.41
2022-10-19T02:19:42.854Z,5.36
2022-10-19T02:22:09.695Z,5.33
2022-10-19T02:24:36.161Z,5.33
2022-10-19T02:27:05.556Z,5.37
2022-10-19T02:29:34.417Z,5.40
2022-10-19T02:32:01.413Z,5.40
2022-10-19T02:34:28.192Z,5.39
2022-10-19T02:36:55.880Z,5.36
2022-10-19T02:39:22.821Z,5.36
2022-10-19T02:41:57.363Z,5.36
2022-10-19T02:44:31.724Z,5.36
2022-10-19T02:47:06.672Z,5.36
2022-10-19T02:49:35.328Z,5.31
2022-10-19T02:52:05.703Z,5.21
2022-10-19T02:54:32.601Z,5.10
2022-10-19T02:56:59.355Z,5.05
2022-10-19T02:59:26.199Z,5.00
2022-10-19T03:01:52.836Z,4.91
2022-10-19T03:04:19.439Z,4.80
2022-10-19T03:06:45.965Z,4.64
2022-10-19T03:09:12.403Z,4.57
2022-10-19T03:11:38.974Z,4.58
2022-10-19T03:14:05.394Z,4.57
2022-10-19T03:16:31.868Z,4.65
2022-10-19T03:18:58.392Z,4.69
2022-10-19T03:21:24.792Z,4.64
2022-10-19T03:23:51.250Z,4.68
2022-10-19T03:26:18.268Z,4.71
2022-10-19T03:28:46.926Z,4.72
2022-10-19T03:31:13.425Z,4.70
2022-10-19T03:33:39.935Z,4.70
2022-10-19T03:36:34.265Z,4.73
2022-10-19T03:39:03.942Z,4.73
2022-10-19T03:41:33.054Z,4.73
2022-10-19T03:46:32.199Z,4.74
2022-10-19T03:48:58.665Z,4.75
2022-10-19T03:51:28.179Z,4.76
2022-10-19T03:53:56.412Z,4.75
2022-10-19T03:56:25.040Z,4.71
2022-10-19T03:58:52.661Z,4.70
2022-10-19T04:01:45.740Z,4.73
2022-10-19T04:04:15.228Z,4.71
2022-10-19T04:06:45.334Z,4.70
2022-10-19T04:09:14.622Z,4.68
2022-10-19T04:11:42.149Z,4.66
2022-10-19T04:16:36.195Z,4.58
2022-10-19T04:19:02.741Z,4.58
2022-10-19T04:21:31.693Z,4.53
2022-10-19T04:24:01.175Z,4.52
2022-10-19T04:26:28.382Z,4.46
2022-10-19T04:28:57.809Z,4.43
2022-10-19T04:31:24.901Z,4.46
2022-10-19T04:33:51.354Z,4.49
2022-10-19T04:36:17.918Z,4.50
2022-10-19T04:38:44.437Z,4.50
2022-10-19T04:41:13.941Z,4.50
2022-10-19T04:43:40.750Z,4.46
2022-10-19T04:46:13.306Z,4.39
2022-10-19T04:48:40.779Z,4.29
2022-10-19T04:51:08.011Z,4.23
2022-10-19T04:53:35.405Z,4.23
2022-10-19T04:56:05.926Z,4.20
2022-10-19T04:58:32.480Z,4.11
2022-10-19T05:00:59.081Z,4.09
2022-10-19T05:03:25.562Z,4.09
2022-10-19T05:05:51.984Z,4.03
2022-10-19T05:08:18.461Z,4.03
2022-10-19T05:10:47.649Z,4.07
2022-10-19T05:13:14.870Z,3.98
2022-10-19T05:15:41.478Z,3.92
2022-10-19T05:18:08.028Z,3.93
2022-10-19T05:20:34.545Z,3.93
2022-10-19T05:23:06.153Z,3.95
2022-10-19T05:25:33.826Z,4.00
2022-10-19T05:28:00.313Z,4.00
2022-10-19T05:30:26.840Z,4.02
2022-10-19T05:32:53.292Z,4.00
2022-10-19T05:35:22.418Z,3.98
2022-10-19T05:37:49.270Z,3.98
2022-10-19T05:40:15.795Z,3.95
2022-10-19T05:42:42.235Z,3.97
2022-10-19T05:45:09.091Z,3.99
2022-10-19T05:47:35.808Z,3.99
2022-10-19T05:50:02.802Z,4.00
2022-10-19T05:52:29.516Z,3.99
2022-10-19T05:54:58.249Z,3.97
2022-10-19T05:57:25.574Z,3.96
2022-10-19T05:59:52.053Z,3.94
2022-10-19T06:02:20.795Z,3.89
2022-10-19T06:04:47.107Z,3.87
2022-10-19T06:07:13.670Z,3.87
2022-10-19T06:09:40.238Z,3.84
2022-10-19T06:12:06.812Z,3.85
2022-10-19T06:14:33.342Z,3.78
2022-10-19T06:16:59.807Z,3.69
2022-10-19T06:19:26.334Z,3.70
2022-10-19T06:21:52.809Z,3.74
2022-10-19T06:24:19.218Z,3.79
2022-10-19T06:26:45.767Z,3.76
2022-10-19T06:29:12.363Z,3.77
2022-10-19T06:31:38.937Z,3.79
2022-10-19T06:34:05.788Z,3.83
2022-10-19T06:36:33.013Z,3.87
2022-10-19T06:39:01.582Z,3.84
2022-10-19T06:41:30.598Z,3.83
2022-10-19T06:43:57.257Z,3.87
2022-10-19T06:46:25.990Z,3.93
2022-10-19T06:48:53.373Z,3.97
2022-10-19T06:51:20.730Z,4.00
2022-10-19T06:53:47.239Z,4.02
2022-10-19T06:56:14.020Z,4.06
2022-10-19T06:58:40.763Z,4.12
2022-10-19T07:01:10.119Z,4.17
2022-10-19T07:03:37.286Z,4.20
2022-10-19T07:06:06.937Z,4.22
2022-10-19T07:08:34.908Z,4.27
2022-10-19T07:11:05.157Z,4.32
2022-10-19T07:13:31.841Z,4.40
2022-10-19T07:16:05.499Z,4.42
2022-10-19T07:18:33.446Z,4.50
2022-10-19T07:21:01.989Z,4.55
2022-10-19T07:23:29.735Z,4.60
2022-10-19T07:26:01.460Z,4.68
2022-10-19T07:28:29.606Z,4.71
2022-10-19T07:30:56.431Z,4.77
2022-10-19T07:33:23.735Z,4.79
2022-10-19T07:35:50.333Z,4.84
2022-10-19T07:38:16.863Z,4.93
2022-10-19T07:40:46.423Z,4.99
2022-10-19T07:43:14.007Z,5.09
2022-10-19T07:45:40.543Z,5.17
2022-10-19T07:48:07.202Z,5.26
2022-10-19T07:50:33.809Z,5.34
2022-10-19T07:53:00.308Z,5.41
2022-10-19T07:55:26.740Z,5.50
2022-10-19T07:57:53.262Z,5.58
2022-10-19T08:00:19.725Z,5.67
2022-10-19T08:02:57.721Z,5.75
2022-10-19T08:05:26.564Z,5.92
2022-10-19T08:07:53.030Z,6.01
2022-10-19T08:10:19.517Z,6.11
2022-10-19T08:12:46.053Z,6.19
2022-10-19T08:15:12.558Z,6.33
2022-10-19T08:17:39.807Z,6.46
2022-10-19T08:20:07.721Z,6.59
2022-10-19T08:22:34.644Z,6.74
2022-10-19T08:25:04.734Z,6.89
2022-10-19T08:27:31.288Z,7.04
2022-10-19T08:29:57.843Z,7.15
2022-10-19T08:32:24.395Z,7.31
2022-10-19T08:34:50.818Z,7.48
2022-10-19T08:37:26.410Z,7.62
2022-10-19T08:40:04.283Z,7.80
2022-10-19T08:42:59.875Z,7.95
2022-10-19T08:45:37.291Z,8.07
2022-10-19T08:48:15.261Z,8.19
2022-10-19T08:50:45.263Z,8.33
2022-10-19T08:53:59.778Z,8.49
2022-10-19T08:56:50.649Z,8.64
2022-10-19T08:59:39.020Z,8.73
2022-10-19T09:02:38.060Z,8.82
2022-10-19T09:05:09.749Z,8.94
2022-10-19T09:07:45.531Z,9.02
2022-10-19T09:10:17.849Z,9.12
2022-10-19T09:13:07.540Z,9.19
2022-10-19T09:15:41.476Z,9.29
2022-10-19T09:18:30.803Z,9.40
2022-10-19T09:21:08.551Z,9.52
2022-10-19T09:23:39.802Z,9.56
2022-10-19T09:26:14.934Z,9.65
2022-10-19T09:28:44.347Z,9.74
2022-10-19T09:31:19.508Z,9.88
2022-10-19T09:33:55.523Z,10.04
2022-10-19T09:36:33.229Z,10.11
2022-10-19T09:39:12.781Z,10.13
2022-10-19T09:41:55.101Z,10.21
2022-10-19T09:44:23.239Z,10.28
2022-10-19T09:47:19.981Z,10.39
2022-10-19T09:49:48.266Z,10.50
2022-10-19T09:52:34.179Z,10.60
2022-10-19T09:55:07.250Z,10.68
2022-10-19T09:57:42.926Z,10.78
2022-10-19T10:00:19.223Z,10.88
2022-10-19T10:02:50.735Z,10.94
2022-10-19T10:05:17.338Z,10.97
2022-10-19T10:07:44.507Z,11.01
2022-10-19T10:10:28.072Z,11.02
2022-10-19T10:12:59.756Z,11.07
2022-10-19T10:15:29.875Z,11.16
2022-10-19T10:17:57.228Z,11.24
2022-10-19T10:20:32.604Z,11.29
2022-10-19T10:23:04.652Z,11.38
2022-10-19T10:25:34.540Z,11.51
2022-10-19T10:28:15.192Z,11.53
2022-10-19T10:30:42.516Z,11.53
2022-10-19T10:33:33.186Z,11.51
2022-10-19T10:36:08.399Z,11.47
2022-10-19T10:38:44.876Z,11.45
2022-10-19T10:41:17.689Z,11.49
2022-10-19T10:44:04.994Z,11.56
2022-10-19T10:46:37.131Z,11.61
2022-10-19T10:49:06.866Z,11.66
2022-10-19T10:51:59.648Z,11.74
2022-10-19T10:54:29.991Z,11.82
2022-10-19T10:57:16.509Z,11.87
2022-10-19T11:00:02.238Z,11.95
2022-10-19T11:02:43.865Z,12.00
2022-10-19T11:05:17.875Z,12.05
2022-10-19T11:07:47.707Z,12.12
2022-10-19T11:10:25.505Z,12.16
2022-10-19T11:12:56.284Z,12.24
2022-10-19T11:15:27.869Z,12.28
2022-10-19T11:17:58.064Z,12.40
2022-10-19T11:20:29.583Z,12.47
2022-10-19T11:23:10.551Z,12.49
2022-10-19T11:25:49.377Z,12.58
2022-10-19T11:28:49.561Z,12.71
2022-10-19T11:31:24.675Z,12.75
2022-10-19T11:34:16.376Z,12.82
2022-10-19T11:36:58.152Z,12.94
2022-10-19T11:39:42.773Z,12.99
2022-10-19T11:42:26.388Z,13.06
2022-10-19T11:45:11.552Z,13.09
2022-10-19T11:48:09.456Z,13.18
2022-10-19T11:50:49.736Z,13.28
2022-10-19T11:54:00.233Z,13.36
2022-10-19T11:57:02.218Z,13.42
2022-10-19T12:00:08.644Z,13.47
2022-10-19T12:03:03.495Z,13.46
2022-10-19T12:05:56.219Z,13.49
2022-10-19T12:08:28.907Z,13.50
2022-10-19T12:10:55.337Z,13.56
2022-10-19T12:14:00.651Z,13.67
2022-10-19T12:16:53.061Z,13.67
2022-10-19T12:19:32.076Z,13.71
2022-10-19T12:22:01.590Z,13.76
2022-10-19T12:24:29.847Z,13.79
2022-10-19T12:26:57.686Z,13.81
2022-10-19T12:29:32.763Z,13.83
2022-10-19T12:32:00.987Z,13.82
2022-10-19T12:34:45.128Z,13.82
2022-10-19T12:37:19.945Z,13.85
2022-10-19T12:40:08.126Z,13.87
2022-10-19T12:42:52.965Z,13.88
2022-10-19T12:45:25.575Z,13.92
2022-10-19T12:48:14.355Z,13.91
2022-10-19T12:50:50.021Z,13.90
2022-10-19T12:55:59.867Z,13.88
2022-10-19T12:58:29.399Z,13.93
2022-10-19T13:01:01.025Z,14.01
2022-10-19T13:03:36.381Z,14.05
2022-10-19T13:06:12.712Z,14.06
2022-10-19T13:08:56.189Z,14.07
2022-10-19T13:11:23.291Z,14.09
2022-10-19T13:14:06.575Z,14.12
2022-10-19T13:16:40.878Z,14.15
2022-10-19T13:19:13.258Z,14.15
2022-10-19T13:21:54.884Z,14.16
2022-10-19T13:24:24.301Z,14.14
2022-10-19T13:26:59.897Z,14.19
2022-10-19T13:29:28.864Z,14.17
2022-10-19T13:31:55.494Z,14.21
2022-10-19T13:34:25.106Z,14.22
2022-10-19T13:37:02.823Z,14.27
2022-10-19T13:39:30.100Z,14.26
2022-10-19T13:41:57.398Z,14.32
2022-10-19T13:44:31.063Z,14.32
2022-10-19T13:47:12.671Z,14.32
2022-10-19T13:50:02.856Z,14.33
2022-10-19T13:52:41.523Z,14.35
2022-10-19T13:55:37.274Z,14.27
2022-10-19T13:58:51.399Z,14.26
2022-10-19T14:01:53.012Z,14.32
2022-10-19T14:04:28.952Z,14.34
2022-10-19T14:07:13.991Z,14.36
2022-10-19T14:10:06.502Z,14.36
2022-10-19T14:12:36.809Z,14.38
2022-10-19T14:15:19.835Z,14.34
2022-10-19T14:17:46.434Z,14.30
2022-10-19T14:20:32.896Z,14.27
2022-10-19T14:23:18.171Z,14.24
2022-10-19T14:25:57.057Z,14.21
2022-10-19T14:28:24.680Z,14.14
2022-10-19T14:30:57.193Z,14.10
2022-10-19T14:33:25.519Z,14.06
2022-10-19T14:35:52.790Z,14.01
2022-10-19T14:38:25.766Z,14.00
2022-10-19T14:40:52.269Z,13.99
2022-10-19T14:43:28.847Z,14.01
2022-10-19T14:46:07.300Z,14.01
2022-10-19T14:48:35.944Z,13.99
2022-10-19T14:51:09.971Z,13.98
2022-10-19T14:53:39.865Z,13.92
2022-10-19T14:56:15.314Z,13.92
2022-10-19T14:58:54.119Z,13.87
2022-10-19T15:01:21.539Z,13.77
2022-10-19T15:03:49.871Z,13.72
2022-10-19T15:06:30.106Z,13.70
2022-10-19T15:09:04.268Z,13.65
2022-10-19T15:11:37.584Z,13.57
2022-10-19T15:14:09.745Z,13.48
2022-10-19T15:16:57.475Z,13.42
2022-10-19T15:19:41.197Z,13.36
2022-10-19T15:22:20.285Z,13.34
2022-10-19T15:24:55.805Z,13.31
2022-10-19T15:27:28.830Z,13.23
2022-10-19T15:30:18.676Z,13.14
2022-10-19T15:32:51.444Z,13.05
2022-10-19T15:35:23.259Z,12.96
2022-10-19T15:37:50.779Z,12.85
2022-10-19T15:40:25.825Z,12.75
2022-10-19T15:42:52.521Z,12.66
2022-10-19T15:45:38.112Z,12.58
2022-10-19T15:48:10.368Z,12.51
2022-10-19T15:50:42.475Z,12.45
2022-10-19T15:53:08.909Z,12.38
2022-10-19T15:55:35.508Z,12.29
2022-10-19T15:58:02.307Z,12.23
2022-10-19T16:00:29.988Z,12.15
2022-10-19T16:02:56.442Z,12.07
2022-10-19T16:05:23.218Z,12.02
2022-10-19T16:07:50.175Z,11.96
2022-10-19T16:10:20.438Z,11.89
2022-10-19T16:12:47.102Z,11.82
2022-10-19T16:15:22.237Z,11.77
2022-10-19T16:17:59.926Z,11.70
2022-10-19T16:20:28.894Z,11.65
2022-10-19T16:22:55.483Z,11.58
2022-10-19T16:25:22.015Z,11.53
2022-10-19T16:27:48.666Z,11.49
2022-10-19T16:30:15.086Z,11.42
2022-10-19T16:35:10.040Z,11.33
2022-10-19T16:37:37.140Z,11.27
2022-10-19T16:40:05.353Z,11.24
2022-10-19T16:42:32.120Z,11.20
2022-10-19T16:44:58.929Z,11.16
2022-10-19T16:47:25.545Z,11.17
2022-10-19T16:50:01.153Z,11.12
2022-10-19T16:52:29.305Z,11.09
2022-10-19T16:54:56.759Z,11.03
2022-10-19T16:57:23.366Z,10.95
2022-10-19T17:02:23.098Z,10.85
2022-10-19T17:04:49.717Z,10.80
2022-10-19T17:07:16.221Z,10.74
2022-10-19T17:09:43.369Z,10.72
2022-10-19T17:12:10.527Z,10.68
2022-10-19T17:14:39.852Z,10.65
2022-10-19T17:17:06.780Z,10.61
2022-10-19T17:19:34.092Z,10.61
2022-10-19T17:22:02.135Z,10.60
2022-10-19T17:24:29.098Z,10.57
2022-10-19T17:26:55.943Z,10.53
2022-10-19T17:29:23.196Z,10.49
2022-10-19T17:31:49.919Z,10.45
2022-10-19T17:34:16.760Z,10.47
2022-10-19T17:36:46.913Z,10.44
2022-10-19T17:39:20.392Z,10.43
2022-10-19T17:41:49.010Z,10.40
2022-10-19T17:44:16.318Z,10.39
2022-10-19T17:46:42.880Z,10.37
2022-10-19T17:49:10.252Z,10.32
2022-10-19T17:51:37.959Z,10.30
2022-10-19T17:54:10.885Z,10.27
2022-10-19T17:56:38.961Z,10.25
2022-10-19T17:59:07.914Z,10.23
2022-10-19T18:01:35.021Z,10.21
2022-10-19T18:04:01.558Z,10.19
2022-10-19T18:06:33.970Z,10.16
2022-10-19T18:09:02.118Z,10.13
2022-10-19T18:11:32.024Z,10.13
2022-10-19T18:14:00.784Z,10.13
2022-10-19T18:16:37.006Z,10.13
2022-10-19T18:19:04.935Z,10.13
2022-10-19T18:21:34.901Z,10.14
2022-10-19T18:24:02.826Z,10.12
2022-10-19T18:26:31.893Z,10.09
2022-10-19T18:28:59.221Z,10.07
2022-10-19T18:31:29.372Z,10.06
2022-10-19T18:34:05.691Z,10.04
2022-10-19T18:36:33.241Z,10.01
2022-10-19T18:39:01.873Z,10.00
2022-10-19T18:41:29.767Z,9.96
2022-10-19T18:44:05.106Z,9.93
2022-10-19T18:46:36.543Z,9.93
2022-10-19T18:49:05.677Z,9.89
2022-10-19T18:51:32.720Z,9.87
2022-10-19T18:53:59.406Z,9.83
2022-10-19T18:56:26.598Z,9.80
2022-10-19T18:58:53.262Z,9.79
2022-10-19T19:01:26.854Z,9.74
2022-10-19T19:03:56.408Z,9.72
2022-10-19T19:06:30.269Z,9.68
2022-10-19T19:08:59.137Z,9.65
2022-10-19T19:11:34.269Z,9.65
2022-10-19T19:14:11.904Z,9.59
2022-10-19T19:16:39.759Z,9.56
2022-10-19T19:19:07.298Z,9.51
2022-10-19T19:21:35.556Z,9.48
2022-10-19T19:24:05.221Z,9.47
2022-10-19T19:26:34.330Z,9.43
2022-10-19T19:29:00.798Z,9.41
2022-10-19T19:31:27.452Z,9.38
2022-10-19T19:33:54.115Z,9.35
2022-10-19T19:36:20.923Z,9.31
2022-10-19T19:38:49.049Z,9.27
2022-10-19T19:41:16.417Z,9.23
2022-10-19T19:43:43.673Z,9.21
2022-10-19T19:46:16.708Z,9.17
2022-10-19T19:48:46.395Z,9.15
2022-10-19T19:51:15.427Z,9.11
2022-10-19T19:53:42.632Z,9.07
2022-10-19T19:56:11.570Z,9.04
2022-10-19T19:58:38.527Z,9.02
2022-10-19T20:01:13.593Z,8.99
2022-10-19T20:03:41.134Z,8.95
2022-10-19T20:06:08.314Z,8.94
2022-10-19T20:08:36.355Z,8.93
2022-10-19T20:11:05.777Z,8.90
2022-10-19T20:13:32.996Z,8.88
2022-10-19T20:16:02.549Z,8.87
2022-10-19T20:18:29.654Z,8.85
2022-10-19T20:21:01.188Z,8.82
2022-10-19T20:23:28.491Z,8.81
2022-10-19T20:25:56.308Z,8.81
2022-10-19T20:28:24.719Z,8.79
2022-10-19T20:31:04.751Z,8.78
2022-10-19T20:33:32.722Z,8.75
2022-10-19T20:36:13.287Z,8.67
2022-10-19T20:38:40.610Z,8.64
2022-10-19T20:41:09.243Z,8.61
2022-10-19T20:43:37.424Z,8.60
2022-10-19T20:46:24.715Z,8.59
2022-10-19T20:48:52.451Z,8.57
2022-10-19T20:51:30.567Z,8.53
2022-10-19T20:54:00.535Z,8.51
2022-10-19T20:56:30.253Z,8.47
2022-10-19T21:01:31.764Z,8.46
2022-10-19T21:04:01.513Z,8.43
2022-10-19T21:06:30.163Z,8.43
2022-10-19T21:08:58.299Z,8.41
2022-10-19T21:11:27.976Z,8.39
2022-10-19T21:13:56.901Z,8.36
2022-10-19T21:16:27.462Z,8.31
2022-10-19T21:18:54.502Z,8.27
2022-10-19T21:21:24.219Z,8.25
2022-10-19T21:23:53.840Z,8.22
2022-10-19T21:26:20.634Z,8.18
2022-10-19T21:28:49.388Z,8.11
2022-10-19T21:31:17.238Z,8.08
2022-10-19T21:33:44.108Z,8.09
2022-10-19T21:36:12.078Z,8.09
2022-10-19T21:38:39.067Z,8.07
2022-10-19T21:41:08.778Z,8.06
2022-10-19T21:43:35.551Z,8.03
2022-10-19T21:46:07.286Z,8.00
2022-10-19T21:48:34.563Z,7.98
2022-10-19T21:51:10.100Z,7.94
2022-10-19T21:53:36.508Z,7.89
2022-10-19T21:56:02.991Z,7.86
2022-10-19T21:58:29.417Z,7.85
2022-10-19T22:01:04.007Z,7.80
2022-10-19T22:03:30.357Z,7.80
2022-10-19T22:05:56.791Z,7.79
2022-10-19T22:08:23.371Z,7.77
2022-10-19T22:10:49.850Z,7.72
2022-10-19T22:13:16.335Z,7.69
2022-10-19T22:15:42.926Z,7.67
2022-10-19T22:18:09.426Z,7.66
2022-10-19T22:20:36.665Z,7.63
2022-10-19T22:23:04.710Z,7.61
2022-10-19T22:25:32.464Z,7.62
2022-10-19T22:27:59.272Z,7.59
2022-10-19T22:30:25.835Z,7.58
2022-10-19T22:32:52.959Z,7.57
2022-10-19T22:35:19.651Z,7.53
2022-10-19T22:37:46.251Z,7.50
2022-10-19T22:40:13.335Z,7.47
2022-10-19T22:42:39.796Z,7.47
2022-10-19T22:45:06.848Z,7.47
2022-10-19T22:47:33.300Z,7.45
2022-10-19T22:49:59.746Z,7.43
2022-10-19T22:52:26.210Z,7.40
2022-10-19T22:54:52.740Z,7.40
2022-10-19T22:57:19.195Z,7.39
2022-10-19T22:59:45.705Z,7.37
2022-10-19T23:02:12.202Z,7.38
2022-10-19T23:04:38.665Z,7.39
2022-10-19T23:07:05.233Z,7.39
2022-10-19T23:09:31.791Z,7.39
2022-10-19T23:11:58.262Z,7.36
2022-10-19T23:14:24.776Z,7.35
2022-10-19T23:16:51.253Z,7.35
2022-10-19T23:19:17.729Z,7.35
2022-10-19T23:21:44.240Z,7.36
2022-10-19T23:24:10.784Z,7.33
2022-10-19T23:26:37.492Z,7.34
2022-10-19T23:29:03.996Z,7.32
2022-10-19T23:31:31.038Z,7.26
2022-10-19T23:33:57.612Z,7.25
2022-10-19T23:36:27.048Z,7.23
2022-10-19T23:38:55.203Z,7.18
2022-10-19T23:41:22.312Z,7.19
2022-10-19T23:43:49.409Z,7.20
2022-10-19T23:46:16.237Z,7.21
2022-10-19T23:48:42.825Z,7.19
2022-10-19T23:51:18.002Z,7.22
2022-10-19T23:53:46.609Z,7.20
2022-10-19T23:56:18.396Z,7.16
2022-10-19T23:58:45.469Z,7.15
